Time;durP1;ratioP1;P1;durP2;ratioP2;P2;SDS_P1;SDS_P2;PMS_P1;PMS_P2;Temp;Humidity;BMP_temperature;BMP_pressure;BME280_temperature;BME280_humidity;BME280_pressure;Samples;Min_cycle;Max_cycle;Signal;HPM_P1;HPM_P2
2022/06/26 00:01:16;;;;;;;7.53;6.40;;;;;;;;;;4998128;28;20468;-80
2022/06/26 00:03:43;;;;;;;7.93;6.90;;;;;;;;;;5000413;28;20578;-80
2022/06/26 00:06:09;;;;;;;7.57;6.70;;;;;;;;;;5017446;28;20026;-80
2022/06/26 00:08:35;;;;;;;8.02;6.65;;;;;;;;;;5011092;28;20022;-80
2022/06/26 00:11:01;;;;;;;8.25;6.53;;;;;;;;;;5001489;28;20021;-80
2022/06/26 00:13:27;;;;;;;9.10;7.05;;;;;;;;;;5001772;28;20407;-80
2022/06/26 00:15:53;;;;;;;7.45;6.75;;;;;;;;;;5000152;28;20029;-80
2022/06/26 00:18:19;;;;;;;9.70;6.43;;;;;;;;;;4999525;28;20862;-80
2022/06/26 00:20:45;;;;;;;7.88;6.78;;;;;;;;;;5001516;28;20027;-80
2022/06/26 00:23:11;;;;;;;7.57;6.45;;;;;;;;;;5002429;28;20034;-79
2022/06/26 00:25:37;;;;;;;7.60;6.25;;;;;;;;;;5001305;28;20174;-80
2022/06/26 00:28:03;;;;;;;7.40;5.65;;;;;;;;;;5002841;28;20073;-80
2022/06/26 00:30:29;;;;;;;11.23;6.50;;;;;;;;;;5001134;28;20026;-80
2022/06/26 00:32:55;;;;;;;8.30;6.28;;;;;;;;;;5000786;28;20026;-80
2022/06/26 00:35:21;;;;;;;6.75;5.90;;;;;;;;;;5001331;28;20065;-80
2022/06/26 00:37:48;;;;;;;7.03;6.18;;;;;;;;;;5019584;28;20598;-80
2022/06/26 00:40:14;;;;;;;8.52;6.32;;;;;;;;;;4997672;28;20014;-80
2022/06/26 00:42:41;;;;;;;7.13;6.32;;;;;;;;;;4999727;28;20094;-80
2022/06/26 00:45:07;;;;;;;8.48;6.38;;;;;;;;;;4999479;28;20030;-79
2022/06/26 00:47:34;;;;;;;6.88;6.05;;;;;;;;;;5000940;28;20034;-80
2022/06/26 00:50:00;;;;;;;8.43;5.97;;;;;;;;;;4998415;28;20019;-80
2022/06/26 00:52:27;;;;;;;8.80;6.43;;;;;;;;;;4998578;28;20033;-80
2022/06/26 00:54:53;;;;;;;8.38;5.97;;;;;;;;;;5000315;28;20113;-81
2022/06/26 00:57:19;;;;;;;7.10;5.63;;;;;;;;;;5015912;28;20113;-81
2022/06/26 00:59:45;;;;;;;6.45;5.75;;;;;;;;;;5015017;28;20100;-81
2022/06/26 01:02:11;;;;;;;7.25;6.10;;;;;;;;;;5016807;28;20036;-80
2022/06/26 01:04:37;;;;;;;6.93;5.82;;;;;;;;;;4997007;28;20069;-81
2022/06/26 01:07:04;;;;;;;8.95;6.50;;;;;;;;;;5007233;28;20033;-81
2022/06/26 01:09:30;;;;;;;8.90;5.80;;;;;;;;;;4999433;28;20034;-81
2022/06/26 01:11:56;;;;;;;7.03;6.32;;;;;;;;;;4998785;28;20022;-81
2022/06/26 01:14:22;;;;;;;6.60;5.88;;;;;;;;;;5000797;28;20034;-81
2022/06/26 01:16:48;;;;;;;7.03;6.30;;;;;;;;;;5011104;28;20117;-80
2022/06/26 01:19:18;;;;;;;7.40;6.57;;;;;;;;;;4997798;28;20061;-81
2022/06/26 01:21:44;;;;;;;6.70;5.97;;;;;;;;;;4998165;28;20042;-81
2022/06/26 01:24:10;;;;;;;7.15;6.07;;;;;;;;;;4998177;28;20606;-81
2022/06/26 01:26:37;;;;;;;7.22;6.03;;;;;;;;;;4999605;28;20361;-80
2022/06/26 01:29:05;;;;;;;8.25;6.90;;;;;;;;;;4998496;28;20049;-81
2022/06/26 01:31:36;;;;;;;9.23;6.97;;;;;;;;;;4997992;28;20081;-81
2022/06/26 01:34:06;;;;;;;8.15;7.10;;;;;;;;;;4972919;28;1107344;-81
2022/06/26 01:36:32;;;;;;;8.45;6.97;;;;;;;;;;5006742;28;20053;-80
2022/06/26 01:38:58;;;;;;;9.02;6.93;;;;;;;;;;5000449;28;20082;-81
2022/06/26 01:41:25;;;;;;;8.98;6.85;;;;;;;;;;4998630;28;20033;-80
2022/06/26 01:43:51;;;;;;;7.65;6.32;;;;;;;;;;5000400;28;20050;-81
2022/06/26 01:46:17;;;;;;;7.85;6.68;;;;;;;;;;4998177;28;20469;-81
2022/06/26 01:48:43;;;;;;;7.93;6.63;;;;;;;;;;5019188;28;20053;-81
2022/06/26 01:51:09;;;;;;;7.75;6.68;;;;;;;;;;5011945;28;20033;-81
2022/06/26 01:53:36;;;;;;;7.65;6.85;;;;;;;;;;5009222;28;20033;-81
2022/06/26 01:56:03;;;;;;;7.97;6.65;;;;;;;;;;4999190;28;20030;-80
2022/06/26 01:58:30;;;;;;;8.73;6.60;;;;;;;;;;5001956;28;20026;-81
2022/06/26 02:00:56;;;;;;;7.07;5.85;;;;;;;;;;4998126;28;20033;-81
2022/06/26 02:03:23;;;;;;;8.85;7.35;;;;;;;;;;4998116;28;20034;-81
2022/06/26 02:05:50;;;;;;;7.88;7.07;;;;;;;;;;5009178;28;20073;-81
2022/06/26 02:08:16;;;;;;;7.82;7.03;;;;;;;;;;5018047;28;20026;-81
2022/06/26 02:13:37;;;;;;;7.88;7.07;;;;;;;;;;5013047;28;20046;-81
2022/06/26 02:16:03;;;;;;;8.18;6.47;;;;;;;;;;4998436;28;20447;-81
2022/06/26 02:18:29;;;;;;;7.55;6.57;;;;;;;;;;5019418;28;20065;-81
2022/06/26 02:20:55;;;;;;;13.25;7.18;;;;;;;;;;5011228;28;20044;-80
2022/06/26 02:23:22;;;;;;;10.52;7.20;;;;;;;;;;5018634;28;20026;-81
2022/06/26 02:25:48;;;;;;;7.88;6.57;;;;;;;;;;5011277;28;20490;-81
2022/06/26 02:28:16;;;;;;;9.27;7.78;;;;;;;;;;5013495;28;20026;-81
2022/06/26 02:30:42;;;;;;;7.93;6.70;;;;;;;;;;5018994;28;20429;-81
2022/06/26 02:33:08;;;;;;;9.32;8.18;;;;;;;;;;5019832;28;20045;-81
2022/06/26 02:35:34;;;;;;;9.85;6.93;;;;;;;;;;5004818;28;20050;-81
2022/06/26 02:38:01;;;;;;;8.57;7.00;;;;;;;;;;5012121;28;20034;-81
2022/06/26 02:40:28;;;;;;;8.25;6.93;;;;;;;;;;5018704;28;20033;-81
2022/06/26 02:42:54;;;;;;;10.35;7.40;;;;;;;;;;5018411;28;20030;-81
2022/06/26 02:45:21;;;;;;;9.55;7.03;;;;;;;;;;4999546;28;20046;-81
2022/06/26 02:47:47;;;;;;;9.25;7.25;;;;;;;;;;5000592;28;20046;-81
2022/06/26 02:50:13;;;;;;;9.43;7.25;;;;;;;;;;4997514;28;20029;-81
2022/06/26 02:52:39;;;;;;;9.95;7.43;;;;;;;;;;4998915;28;20018;-81
2022/06/26 02:55:06;;;;;;;9.50;7.72;;;;;;;;;;4999526;28;20050;-81
2022/06/26 02:57:32;;;;;;;9.10;7.35;;;;;;;;;;5004503;28;20029;-81
2022/06/26 02:59:58;;;;;;;9.40;7.97;;;;;;;;;;5006850;28;20075;-81
2022/06/26 03:02:25;;;;;;;8.90;7.70;;;;;;;;;;4999362;28;20030;-81
2022/06/26 03:04:51;;;;;;;11.55;7.97;;;;;;;;;;5015274;28;20109;-81
2022/06/26 03:07:18;;;;;;;10.20;7.90;;;;;;;;;;5011725;28;20049;-81
2022/06/26 03:09:44;;;;;;;10.02;8.10;;;;;;;;;;5017514;28;20520;-81
2022/06/26 03:12:10;;;;;;;11.10;7.88;;;;;;;;;;4997010;28;20030;-81
2022/06/26 03:14:36;;;;;;;11.57;8.75;;;;;;;;;;4998229;28;20034;-81
2022/06/26 03:17:02;;;;;;;10.30;7.78;;;;;;;;;;5002294;28;20022;-81
2022/06/26 03:19:28;;;;;;;9.10;8.05;;;;;;;;;;5016142;28;20388;-81
2022/06/26 03:21:54;;;;;;;9.77;7.45;;;;;;;;;;5001858;28;20027;-81
2022/06/26 03:24:20;;;;;;;13.50;8.38;;;;;;;;;;4996922;28;20041;-81
2022/06/26 03:26:47;;;;;;;10.52;8.02;;;;;;;;;;4998586;28;20019;-81
2022/06/26 03:29:13;;;;;;;10.52;7.80;;;;;;;;;;5006581;28;20025;-81
2022/06/26 03:31:40;;;;;;;11.52;8.00;;;;;;;;;;5016489;28;20045;-81
2022/06/26 03:34:06;;;;;;;12.57;8.20;;;;;;;;;;5006949;28;20050;-81
2022/06/26 03:36:32;;;;;;;10.57;8.10;;;;;;;;;;4997842;28;20504;-81
2022/06/26 03:38:59;;;;;;;9.70;7.70;;;;;;;;;;5017818;28;20037;-80
2022/06/26 03:41:25;;;;;;;12.13;8.20;;;;;;;;;;5017915;28;20053;-81
2022/06/26 03:43:52;;;;;;;10.95;8.55;;;;;;;;;;5016667;28;20041;-81
2022/06/26 03:46:18;;;;;;;11.50;9.00;;;;;;;;;;5016108;28;20135;-81
2022/06/26 03:48:44;;;;;;;8.82;7.35;;;;;;;;;;5007798;28;20028;-81
2022/06/26 03:51:10;;;;;;;11.57;8.20;;;;;;;;;;4996545;28;20038;-81
2022/06/26 03:53:37;;;;;;;11.85;8.40;;;;;;;;;;4998182;28;20073;-81
2022/06/26 03:56:03;;;;;;;10.23;8.55;;;;;;;;;;4997487;28;20031;-81
2022/06/26 03:58:29;;;;;;;9.70;7.47;;;;;;;;;;5017268;28;20050;-81
2022/06/26 04:00:55;;;;;;;10.40;7.20;;;;;;;;;;5024217;28;20006;-80
2022/06/26 04:03:22;;;;;;;9.55;8.07;;;;;;;;;;5031564;28;20025;-81
2022/06/26 04:05:48;;;;;;;10.27;7.85;;;;;;;;;;5032399;28;20097;-81
2022/06/26 04:08:14;;;;;;;11.55;8.00;;;;;;;;;;5031353;28;20030;-81
2022/06/26 04:10:41;;;;;;;10.40;8.80;;;;;;;;;;5034127;28;20025;-81
2022/06/26 04:13:08;;;;;;;12.30;8.23;;;;;;;;;;5031220;28;20033;-79
2022/06/26 04:15:34;;;;;;;12.15;8.45;;;;;;;;;;4997192;28;20030;-79
2022/06/26 04:18:01;;;;;;;10.45;8.18;;;;;;;;;;5014587;28;20030;-81
2022/06/26 04:20:27;;;;;;;10.63;8.07;;;;;;;;;;4997733;28;20042;-81
2022/06/26 04:22:56;;;;;;;10.30;8.05;;;;;;;;;;5017375;28;20037;-81
2022/06/26 04:25:22;;;;;;;11.73;7.90;;;;;;;;;;5006367;28;20030;-81
2022/06/26 04:27:48;;;;;;;9.02;7.57;;;;;;;;;;4993106;28;20025;-81
2022/06/26 04:30:15;;;;;;;10.35;7.72;;;;;;;;;;5004670;28;20025;-81
2022/06/26 04:32:41;;;;;;;9.50;7.90;;;;;;;;;;5017896;28;20030;-81
2022/06/26 04:35:07;;;;;;;9.55;7.90;;;;;;;;;;5010337;28;20563;-81
2022/06/26 04:37:33;;;;;;;8.80;7.45;;;;;;;;;;5002030;28;20026;-81
2022/06/26 04:39:59;;;;;;;9.90;7.13;;;;;;;;;;4997465;28;20022;-81
2022/06/26 04:42:25;;;;;;;9.85;7.45;;;;;;;;;;4997160;28;20428;-81
2022/06/26 04:44:52;;;;;;;9.43;7.60;;;;;;;;;;4997329;28;20456;-81
2022/06/26 04:47:18;;;;;;;10.38;7.47;;;;;;;;;;5003876;28;20022;-81
2022/06/26 04:49:44;;;;;;;10.45;7.20;;;;;;;;;;5004062;28;20148;-81
2022/06/26 04:52:10;;;;;;;8.05;6.43;;;;;;;;;;4999868;28;20421;-81
2022/06/26 04:54:36;;;;;;;8.18;6.32;;;;;;;;;;5000861;28;20544;-80
2022/06/26 04:57:02;;;;;;;7.88;6.90;;;;;;;;;;5007862;28;20030;-81
2022/06/26 04:59:28;;;;;;;9.23;6.78;;;;;;;;;;5028698;28;20090;-78
2022/06/26 05:01:54;;;;;;;9.10;6.68;;;;;;;;;;5018121;28;20054;-80
2022/06/26 05:04:20;;;;;;;9.52;6.68;;;;;;;;;;5009177;28;20110;-79
2022/06/26 05:06:46;;;;;;;10.57;6.80;;;;;;;;;;5018473;28;20049;-80
2022/06/26 05:09:12;;;;;;;8.48;6.65;;;;;;;;;;5018646;28;20011;-79
2022/06/26 05:11:40;;;;;;;8.50;6.88;;;;;;;;;;5019875;28;20041;-79
2022/06/26 05:14:06;;;;;;;7.85;6.60;;;;;;;;;;5015929;28;20104;-81
2022/06/26 05:16:32;;;;;;;7.38;6.43;;;;;;;;;;5002828;28;20033;-81
2022/06/26 05:18:58;;;;;;;7.20;5.93;;;;;;;;;;5011693;28;20037;-81
2022/06/26 05:21:24;;;;;;;8.52;6.13;;;;;;;;;;4999723;28;20038;-81
2022/06/26 05:23:51;;;;;;;7.43;6.15;;;;;;;;;;4999113;28;20644;-81
2022/06/26 05:26:17;;;;;;;9.13;6.20;;;;;;;;;;4997911;28;20037;-81
2022/06/26 05:28:43;;;;;;;8.20;6.50;;;;;;;;;;5001486;28;20041;-81
2022/06/26 05:31:09;;;;;;;7.60;6.80;;;;;;;;;;5019567;28;20022;-81
2022/06/26 05:33:35;;;;;;;8.30;6.20;;;;;;;;;;5014476;28;20105;-81
2022/06/26 05:36:01;;;;;;;7.22;6.25;;;;;;;;;;5010685;28;20057;-79
2022/06/26 05:38:27;;;;;;;7.63;5.95;;;;;;;;;;5032404;28;20452;-80
2022/06/26 05:40:54;;;;;;;7.68;6.22;;;;;;;;;;5002054;28;20050;-81
2022/06/26 05:43:20;;;;;;;8.18;6.60;;;;;;;;;;5004682;28;20037;-81
2022/06/26 05:45:46;;;;;;;8.98;6.72;;;;;;;;;;5020834;28;20033;-81
2022/06/26 05:48:12;;;;;;;8.50;5.93;;;;;;;;;;5016357;28;20029;-81
2022/06/26 05:50:38;;;;;;;7.30;6.05;;;;;;;;;;4999579;28;20030;-80
2022/06/26 05:53:04;;;;;;;7.05;6.00;;;;;;;;;;4999788;28;20023;-80
2022/06/26 05:55:31;;;;;;;9.18;6.43;;;;;;;;;;5000722;28;20022;-80
2022/06/26 05:57:57;;;;;;;7.15;6.05;;;;;;;;;;5012036;28;20028;-79
2022/06/26 06:00:23;;;;;;;7.13;6.43;;;;;;;;;;5009099;28;20034;-80
2022/06/26 06:02:49;;;;;;;8.20;5.63;;;;;;;;;;5019942;28;20030;-80
2022/06/26 06:05:15;;;;;;;7.60;6.80;;;;;;;;;;5019683;28;20041;-80
2022/06/26 06:07:41;;;;;;;8.13;6.22;;;;;;;;;;5018443;28;20468;-80
2022/06/26 06:10:08;;;;;;;8.88;6.32;;;;;;;;;;5018848;28;20037;-81
2022/06/26 06:12:34;;;;;;;8.90;6.80;;;;;;;;;;5019636;28;20026;-80
2022/06/26 06:15:01;;;;;;;7.97;6.68;;;;;;;;;;5019621;28;20507;-81
2022/06/26 06:17:36;;;;;;;8.43;7.00;;;;;;;;;;5017535;28;20033;-80
2022/06/26 06:20:06;;;;;;;7.22;6.22;;;;;;;;;;5001448;28;20049;-81
2022/06/26 06:22:32;;;;;;;7.65;6.85;;;;;;;;;;4999557;28;20894;-80
2022/06/26 06:24:58;;;;;;;9.75;7.00;;;;;;;;;;5000227;28;20130;-80
2022/06/26 06:27:24;;;;;;;7.70;6.90;;;;;;;;;;4995845;28;20031;-81
2022/06/26 06:29:50;;;;;;;7.78;7.00;;;;;;;;;;4999784;28;20022;-80
2022/06/26 06:32:16;;;;;;;9.85;6.82;;;;;;;;;;5018785;28;20417;-80
2022/06/26 06:34:42;;;;;;;7.75;6.95;;;;;;;;;;5019454;28;20053;-80
2022/06/26 06:37:08;;;;;;;10.18;7.43;;;;;;;;;;5019064;28;20029;-80
2022/06/26 06:39:34;;;;;;;8.90;6.97;;;;;;;;;;5012017;28;20472;-81
2022/06/26 06:42:00;;;;;;;7.70;6.63;;;;;;;;;;5005555;28;20027;-81
2022/06/26 06:44:27;;;;;;;7.35;6.00;;;;;;;;;;4997631;28;20038;-80
2022/06/26 06:46:53;;;;;;;8.57;7.15;;;;;;;;;;5000201;28;20046;-81
2022/06/26 06:49:19;;;;;;;8.02;6.97;;;;;;;;;;5000806;28;20018;-80
2022/06/26 06:51:45;;;;;;;7.75;6.50;;;;;;;;;;4994528;28;20023;-81
2022/06/26 06:54:11;;;;;;;7.00;6.25;;;;;;;;;;4998841;28;20041;-80
2022/06/26 06:56:37;;;;;;;7.40;6.13;;;;;;;;;;4998798;28;20111;-80
2022/06/26 06:59:03;;;;;;;6.88;6.05;;;;;;;;;;4998787;28;20135;-80
2022/06/26 07:01:30;;;;;;;8.80;6.75;;;;;;;;;;4993895;28;20109;-80
2022/06/26 07:03:56;;;;;;;7.70;6.57;;;;;;;;;;4993030;28;20031;-81
2022/06/26 07:06:22;;;;;;;7.70;6.50;;;;;;;;;;4998663;28;20030;-80
2022/06/26 07:08:48;;;;;;;8.30;6.75;;;;;;;;;;4998122;28;20057;-80
2022/06/26 07:11:14;;;;;;;7.45;5.97;;;;;;;;;;5009174;28;20018;-80
2022/06/26 07:13:40;;;;;;;7.72;6.65;;;;;;;;;;4997734;28;20033;-80
2022/06/26 07:16:06;;;;;;;7.75;6.22;;;;;;;;;;4996421;28;20018;-80
2022/06/26 07:18:33;;;;;;;7.18;6.43;;;;;;;;;;5001870;28;20023;-81
2022/06/26 07:20:59;;;;;;;7.13;6.10;;;;;;;;;;5006957;28;20547;-80
2022/06/26 07:23:25;;;;;;;8.18;6.93;;;;;;;;;;4995926;28;20049;-80
2022/06/26 07:25:51;;;;;;;7.38;6.28;;;;;;;;;;4998280;28;20073;-79
2022/06/26 07:28:17;;;;;;;7.28;6.47;;;;;;;;;;4994375;28;20519;-79
2022/06/26 07:30:43;;;;;;;6.75;5.90;;;;;;;;;;4993409;28;20026;-79
2022/06/26 07:34:12;;;;;;;7.20;5.88;;;;;;;;;;5009117;28;20091;-80
2022/06/26 07:35:55;;;;;;;8.10;5.85;;;;;;;;;;5018835;28;20052;-79
2022/06/26 07:38:21;;;;;;;8.98;6.80;;;;;;;;;;5018965;28;20029;-80
2022/06/26 07:40:49;;;;;;;7.70;6.10;;;;;;;;;;5011360;28;20018;-79
2022/06/26 07:43:15;;;;;;;7.03;6.30;;;;;;;;;;5014292;28;20026;-79
2022/06/26 07:45:41;;;;;;;6.78;6.05;;;;;;;;;;5017974;28;20049;-79
2022/06/26 07:48:08;;;;;;;7.25;6.13;;;;;;;;;;5014644;28;20037;-80
2022/06/26 07:50:34;;;;;;;6.85;5.47;;;;;;;;;;5007633;28;20026;-79
2022/06/26 07:53:00;;;;;;;6.32;5.57;;;;;;;;;;5000748;28;20084;-79
2022/06/26 07:55:26;;;;;;;7.43;6.10;;;;;;;;;;4996409;28;20027;-79
2022/06/26 07:57:52;;;;;;;6.95;5.85;;;;;;;;;;5005981;28;20030;-79
2022/06/26 08:00:18;;;;;;;6.70;6.00;;;;;;;;;;5007264;28;20034;-78
2022/06/26 08:02:44;;;;;;;7.55;6.47;;;;;;;;;;5007010;28;20033;-79
2022/06/26 08:05:11;;;;;;;7.35;6.00;;;;;;;;;;5000105;28;20504;-79
2022/06/26 08:07:37;;;;;;;7.15;5.88;;;;;;;;;;5000326;28;20022;-79
2022/06/26 08:10:04;;;;;;;7.38;5.95;;;;;;;;;;5006431;28;20077;-79
2022/06/26 08:12:30;;;;;;;6.40;5.60;;;;;;;;;;5012805;28;20041;-79
2022/06/26 08:14:56;;;;;;;6.40;5.70;;;;;;;;;;5003555;28;20046;-79
2022/06/26 08:17:22;;;;;;;6.90;5.90;;;;;;;;;;5000166;28;20082;-79
2022/06/26 08:19:48;;;;;;;7.03;6.28;;;;;;;;;;5005717;28;20061;-79
2022/06/26 08:22:14;;;;;;;7.53;5.57;;;;;;;;;;5020128;28;20077;-79
2022/06/26 08:24:41;;;;;;;7.03;5.43;;;;;;;;;;5007161;28;20030;-79
2022/06/26 08:27:08;;;;;;;6.47;5.38;;;;;;;;;;5005050;28;20535;-79
2022/06/26 08:29:34;;;;;;;6.75;5.25;;;;;;;;;;5004505;28;20033;-79
2022/06/26 08:32:01;;;;;;;7.25;5.85;;;;;;;;;;4999458;28;20029;-81
2022/06/26 08:34:28;;;;;;;7.78;5.93;;;;;;;;;;5009234;28;20049;-81
2022/06/26 08:36:54;;;;;;;7.20;5.68;;;;;;;;;;5019657;28;20109;-80
2022/06/26 08:39:21;;;;;;;6.07;5.38;;;;;;;;;;5000578;28;20400;-80
2022/06/26 08:41:48;;;;;;;7.20;5.47;;;;;;;;;;4997487;28;20039;-81
2022/06/26 08:44:15;;;;;;;6.90;5.40;;;;;;;;;;4995655;28;20042;-80
2022/06/26 08:46:42;;;;;;;6.30;4.90;;;;;;;;;;5020980;28;20045;-81
2022/06/26 08:49:29;;;;;;;5.97;5.22;;;;;;;;;;5016502;28;20018;-80
2022/06/26 08:51:55;;;;;;;6.07;5.20;;;;;;;;;;5021617;28;20465;-80
2022/06/26 08:54:21;;;;;;;6.60;4.93;;;;;;;;;;5011066;28;20042;-80
2022/06/26 08:56:49;;;;;;;5.85;5.20;;;;;;;;;;5001875;28;20040;-80
2022/06/26 08:59:17;;;;;;;8.02;5.35;;;;;;;;;;5000680;28;20023;-80
2022/06/26 09:01:43;;;;;;;7.13;4.97;;;;;;;;;;5011265;28;20041;-81
2022/06/26 09:04:10;;;;;;;6.53;4.60;;;;;;;;;;5012716;28;20084;-81
2022/06/26 09:06:37;;;;;;;5.90;4.75;;;;;;;;;;5017025;28;20092;-80
2022/06/26 09:09:13;;;;;;;5.55;4.40;;;;;;;;;;5020821;28;20033;-81
2022/06/26 09:11:39;;;;;;;5.47;4.60;;;;;;;;;;5020707;28;20018;-80
2022/06/26 09:14:05;;;;;;;5.97;4.53;;;;;;;;;;5014223;28;20042;-81
2022/06/26 09:16:32;;;;;;;6.32;4.60;;;;;;;;;;5020502;28;20072;-80
2022/06/26 09:19:12;;;;;;;6.50;4.93;;;;;;;;;;5008802;28;20030;-80
2022/06/26 09:21:38;;;;;;;5.38;4.57;;;;;;;;;;5000623;28;20389;-80
2022/06/26 09:24:04;;;;;;;5.45;4.60;;;;;;;;;;5001243;28;20106;-79
2022/06/26 09:26:30;;;;;;;5.80;4.70;;;;;;;;;;5009947;28;20114;-80
2022/06/26 09:28:56;;;;;;;5.45;4.60;;;;;;;;;;4999575;28;20031;-80
2022/06/26 09:31:23;;;;;;;6.65;4.88;;;;;;;;;;5002019;28;20381;-80
2022/06/26 09:33:50;;;;;;;5.93;4.90;;;;;;;;;;4999297;28;20054;-80
2022/06/26 09:36:17;;;;;;;6.13;5.28;;;;;;;;;;4999503;28;20028;-79
2022/06/26 09:38:50;;;;;;;6.03;5.15;;;;;;;;;;5001478;28;20022;-79
2022/06/26 09:41:16;;;;;;;6.20;5.13;;;;;;;;;;5013782;28;20499;-80
2022/06/26 09:43:43;;;;;;;6.63;5.35;;;;;;;;;;5019840;28;20036;-80
2022/06/26 09:46:10;;;;;;;5.88;5.10;;;;;;;;;;5012170;28;20034;-80
2022/06/26 09:48:37;;;;;;;6.38;4.85;;;;;;;;;;4999500;28;20037;-80
2022/06/26 09:51:04;;;;;;;5.72;5.13;;;;;;;;;;5001066;28;20033;-80
2022/06/26 09:53:30;;;;;;;5.70;5.07;;;;;;;;;;5000769;28;20022;-80
2022/06/26 09:55:57;;;;;;;7.00;5.82;;;;;;;;;;5006901;28;20018;-80
2022/06/26 09:58:24;;;;;;;6.90;5.47;;;;;;;;;;5018200;28;20034;-80
2022/06/26 10:06:28;;;;;;;7.70;5.72;;;;;;;;;;5016335;28;20085;-79
2022/06/26 10:08:55;;;;;;;6.88;5.55;;;;;;;;;;5000247;28;20344;-79
2022/06/26 10:11:27;;;;;;;6.18;5.57;;;;;;;;;;5000001;28;20058;-79
2022/06/26 10:13:55;;;;;;;5.43;4.80;;;;;;;;;;4999065;28;20423;-79
2022/06/26 10:16:40;;;;;;;6.03;5.43;;;;;;;;;;4982925;28;20277;-79
2022/06/26 10:19:18;;;;;;;5.88;5.28;;;;;;;;;;4998821;28;20054;-79
2022/06/26 10:21:46;;;;;;;6.25;5.05;;;;;;;;;;5000467;28;20031;-79
2022/06/26 10:24:12;;;;;;;6.32;5.18;;;;;;;;;;5000700;28;20034;-79
2022/06/26 10:26:38;;;;;;;7.13;5.40;;;;;;;;;;5018333;28;20032;-80
2022/06/26 10:29:11;;;;;;;7.68;5.80;;;;;;;;;;5018095;28;20101;-79
2022/06/26 10:31:49;;;;;;;6.50;5.80;;;;;;;;;;5019559;28;20060;-79
2022/06/26 10:34:19;;;;;;;6.30;5.55;;;;;;;;;;5018119;28;20037;-79
2022/06/26 10:37:05;;;;;;;6.95;6.10;;;;;;;;;;5020248;28;20094;-79
2022/06/26 10:39:45;;;;;;;5.97;5.25;;;;;;;;;;5012417;28;20563;-80
2022/06/26 10:45:01;;;;;;;7.45;5.55;;;;;;;;;;4989309;28;20079;-79
2022/06/26 10:47:39;;;;;;;6.07;5.47;;;;;;;;;;4998243;28;20503;-79
2022/06/26 10:50:05;;;;;;;5.90;5.30;;;;;;;;;;4997787;28;20030;-79
2022/06/26 10:52:31;;;;;;;6.28;5.05;;;;;;;;;;4999321;28;20684;-79
2022/06/26 10:54:58;;;;;;;5.88;5.10;;;;;;;;;;4998576;28;20112;-79
2022/06/26 10:57:37;;;;;;;7.80;5.93;;;;;;;;;;5017386;28;20029;-79
2022/06/26 11:00:06;;;;;;;7.28;5.35;;;;;;;;;;5016616;28;20036;-80
2022/06/26 11:02:39;;;;;;;6.55;5.35;;;;;;;;;;5005933;28;20037;-79
2022/06/26 11:05:06;;;;;;;6.00;4.75;;;;;;;;;;5012051;28;20022;-79
2022/06/26 11:07:46;;;;;;;6.63;4.90;;;;;;;;;;4984888;28;20031;-79
2022/06/26 11:10:22;;;;;;;5.75;4.80;;;;;;;;;;4980556;28;20030;-79
2022/06/26 11:12:52;;;;;;;5.93;4.63;;;;;;;;;;5018960;28;20101;-79
2022/06/26 11:15:32;;;;;;;6.03;4.55;;;;;;;;;;5013618;28;20030;-79
2022/06/26 11:18:05;;;;;;;6.00;4.97;;;;;;;;;;5018309;28;20033;-80
2022/06/26 11:20:46;;;;;;;6.07;5.18;;;;;;;;;;5016495;28;20048;-79
2022/06/26 11:23:39;;;;;;;5.53;4.97;;;;;;;;;;5016589;28;20085;-80
2022/06/26 11:26:06;;;;;;;5.20;4.63;;;;;;;;;;5013671;28;20129;-79
2022/06/26 11:28:34;;;;;;;7.32;5.00;;;;;;;;;;5016567;28;20038;-80
2022/06/26 11:31:01;;;;;;;6.75;4.88;;;;;;;;;;5018248;28;20029;-79
2022/06/26 11:33:31;;;;;;;5.57;4.78;;;;;;;;;;5017479;28;20026;-80
2022/06/26 11:36:24;;;;;;;5.68;4.97;;;;;;;;;;5005595;28;20100;-79
2022/06/26 11:38:52;;;;;;;5.25;4.75;;;;;;;;;;4996648;28;20065;-80
2022/06/26 11:41:19;;;;;;;5.70;5.10;;;;;;;;;;4998122;28;20026;-80
2022/06/26 11:43:46;;;;;;;6.90;4.68;;;;;;;;;;5010138;28;20025;-79
2022/06/26 11:46:12;;;;;;;6.18;4.70;;;;;;;;;;5015343;28;20038;-80
2022/06/26 11:48:38;;;;;;;6.80;4.90;;;;;;;;;;5017803;28;20026;-79
2022/06/26 11:51:04;;;;;;;5.40;4.68;;;;;;;;;;5017291;28;20529;-79
2022/06/26 11:53:31;;;;;;;6.55;4.90;;;;;;;;;;5016385;28;20125;-79
2022/06/26 11:55:59;;;;;;;5.78;4.65;;;;;;;;;;5017035;28;20038;-79
2022/06/26 11:58:35;;;;;;;5.30;4.57;;;;;;;;;;5018465;28;20028;-80
2022/06/26 12:01:09;;;;;;;6.53;5.07;;;;;;;;;;5021463;28;20022;-79
2022/06/26 12:03:55;;;;;;;6.70;5.18;;;;;;;;;;5015708;28;20121;-79
2022/06/26 12:06:32;;;;;;;6.72;4.70;;;;;;;;;;5008210;28;20065;-79
2022/06/26 12:08:59;;;;;;;6.80;4.85;;;;;;;;;;5020523;28;20022;-79
2022/06/26 12:11:25;;;;;;;6.13;4.93;;;;;;;;;;5021303;28;20030;-79
2022/06/26 12:13:51;;;;;;;6.28;4.97;;;;;;;;;;5021415;28;20026;-79
2022/06/26 12:16:20;;;;;;;5.78;4.82;;;;;;;;;;5020136;28;20022;-80
2022/06/26 12:18:48;;;;;;;5.70;4.70;;;;;;;;;;5020082;28;20025;-79
2022/06/26 12:21:15;;;;;;;7.93;4.78;;;;;;;;;;5020224;28;20054;-79
2022/06/26 12:23:44;;;;;;;8.05;6.05;;;;;;;;;;5021443;28;20534;-79
2022/06/26 12:26:11;;;;;;;5.55;4.90;;;;;;;;;;5018263;28;20451;-79
2022/06/26 12:28:42;;;;;;;5.47;4.68;;;;;;;;;;5011440;28;20026;-79
2022/06/26 12:31:08;;;;;;;6.43;4.60;;;;;;;;;;5021171;28;20249;-79
2022/06/26 12:33:34;;;;;;;5.18;4.22;;;;;;;;;;5015427;28;20026;-78
2022/06/26 12:36:00;;;;;;;5.72;4.90;;;;;;;;;;5019928;28;20033;-79
2022/06/26 12:38:29;;;;;;;5.18;4.50;;;;;;;;;;5018760;28;20050;-79
2022/06/26 12:40:56;;;;;;;5.85;4.32;;;;;;;;;;5021830;28;20029;-79
2022/06/26 12:43:22;;;;;;;5.78;5.18;;;;;;;;;;5021266;28;20080;-79
2022/06/26 12:45:49;;;;;;;6.50;5.00;;;;;;;;;;5021011;28;20113;-80
2022/06/26 12:48:15;;;;;;;7.25;4.70;;;;;;;;;;5013474;28;20484;-78
2022/06/26 12:50:41;;;;;;;5.20;4.30;;;;;;;;;;5020111;28;20373;-79
2022/06/26 12:53:08;;;;;;;5.28;4.72;;;;;;;;;;5021805;28;20064;-79
2022/06/26 12:55:34;;;;;;;5.82;4.18;;;;;;;;;;5022291;28;20503;-79
2022/06/26 12:58:00;;;;;;;6.18;4.72;;;;;;;;;;5008408;28;20416;-79
2022/06/26 13:00:27;;;;;;;5.22;4.35;;;;;;;;;;5017720;28;20029;-79
2022/06/26 13:02:53;;;;;;;5.20;4.38;;;;;;;;;;5020893;28;20073;-80
2022/06/26 13:05:19;;;;;;;5.55;4.35;;;;;;;;;;5011219;28;20030;-80
2022/06/26 13:07:45;;;;;;;5.18;4.22;;;;;;;;;;5001400;28;20019;-79
2022/06/26 13:10:12;;;;;;;5.47;4.20;;;;;;;;;;4999933;28;20029;-79
2022/06/26 13:12:38;;;;;;;5.50;4.28;;;;;;;;;;5001279;28;20089;-79
2022/06/26 13:15:04;;;;;;;6.32;4.13;;;;;;;;;;5000951;28;20678;-79
2022/06/26 13:17:33;;;;;;;5.65;4.13;;;;;;;;;;5000940;28;20050;-79
2022/06/26 13:19:59;;;;;;;5.13;4.30;;;;;;;;;;5004740;28;20261;-79
2022/06/26 13:22:25;;;;;;;6.38;5.13;;;;;;;;;;5000625;28;20055;-80
2022/06/26 13:24:51;;;;;;;5.38;4.30;;;;;;;;;;4998194;28;20034;-80
2022/06/26 13:27:17;;;;;;;5.53;4.53;;;;;;;;;;4992967;28;20041;-78
2022/06/26 13:29:43;;;;;;;5.65;4.25;;;;;;;;;;4992852;28;20049;-78
2022/06/26 13:32:10;;;;;;;7.53;4.45;;;;;;;;;;4975910;28;20465;-78
2022/06/26 13:34:36;;;;;;;7.28;4.57;;;;;;;;;;4984522;28;20053;-79
2022/06/26 13:37:02;;;;;;;8.00;4.38;;;;;;;;;;5014712;28;20044;-80
2022/06/26 13:39:28;;;;;;;6.45;4.75;;;;;;;;;;5004622;28;20027;-77
2022/06/26 13:41:54;;;;;;;5.85;4.13;;;;;;;;;;4995072;28;20041;-77
2022/06/26 13:44:20;;;;;;;5.85;4.43;;;;;;;;;;4993638;28;20101;-78
2022/06/26 13:46:49;;;;;;;5.40;4.20;;;;;;;;;;4995412;28;20030;-78
2022/06/26 13:49:15;;;;;;;6.13;4.45;;;;;;;;;;5000976;28;20109;-78
2022/06/26 13:51:41;;;;;;;6.10;4.15;;;;;;;;;;5005263;28;20027;-78
2022/06/26 13:54:07;;;;;;;5.22;4.40;;;;;;;;;;4995041;28;20033;-78
2022/06/26 13:56:33;;;;;;;5.68;4.10;;;;;;;;;;4993921;28;20079;-79
2022/06/26 13:59:00;;;;;;;5.75;4.20;;;;;;;;;;4999040;28;20372;-79
2022/06/26 14:01:26;;;;;;;4.85;3.95;;;;;;;;;;5011622;28;20026;-78
2022/06/26 14:03:53;;;;;;;4.85;4.10;;;;;;;;;;5014241;28;20029;-79
2022/06/26 14:06:19;;;;;;;5.50;4.60;;;;;;;;;;5013807;28;20029;-77
2022/06/26 14:08:45;;;;;;;5.30;4.18;;;;;;;;;;5012461;28;20029;-77
2022/06/26 14:11:11;;;;;;;5.75;3.97;;;;;;;;;;5007789;28;20027;-78
2022/06/26 14:13:38;;;;;;;5.65;4.40;;;;;;;;;;4994136;28;20030;-79
2022/06/26 14:16:04;;;;;;;5.20;4.07;;;;;;;;;;4993970;28;20026;-78
2022/06/26 14:18:30;;;;;;;5.80;4.13;;;;;;;;;;4993585;28;20033;-78
2022/06/26 14:20:56;;;;;;;5.20;4.30;;;;;;;;;;5025658;28;20030;-78
2022/06/26 14:26:07;;;;;;;4.93;4.13;;;;;;;;;;5010305;28;20076;-77
2022/06/26 14:28:36;;;;;;;6.68;4.13;;;;;;;;;;4992932;28;20057;-79
2022/06/26 14:31:07;;;;;;;4.78;3.95;;;;;;;;;;4992876;28;20077;-78
2022/06/26 14:33:33;;;;;;;5.53;4.10;;;;;;;;;;4993339;28;20045;-78
2022/06/26 14:36:00;;;;;;;4.65;3.97;;;;;;;;;;4993067;28;20030;-78
2022/06/26 14:38:27;;;;;;;5.38;3.72;;;;;;;;;;4993205;28;20026;-78
2022/06/26 14:40:53;;;;;;;5.28;3.83;;;;;;;;;;5009548;28;20464;-78
2022/06/26 14:43:19;;;;;;;4.78;3.60;;;;;;;;;;5012795;28;20507;-79
2022/06/26 14:45:45;;;;;;;6.70;3.90;;;;;;;;;;5012525;28;20030;-78
2022/06/26 14:48:11;;;;;;;4.50;3.53;;;;;;;;;;5012724;28;20049;-79
2022/06/26 14:50:37;;;;;;;5.05;4.03;;;;;;;;;;5011208;28;20080;-78
2022/06/26 14:53:03;;;;;;;5.43;4.03;;;;;;;;;;4994189;28;20081;-78
2022/06/26 14:55:29;;;;;;;5.35;4.30;;;;;;;;;;4992900;28;20092;-78